createdAt,value
2018-05-02T00:02:26.128Z,61.68
2018-05-02T00:04:54.493Z,61.71
2018-05-02T00:07:22.666Z,61.79
2018-05-02T00:09:50.840Z,61.37
2018-05-02T00:12:19.038Z,62.06
2018-05-02T00:14:47.207Z,62.31
2018-05-02T00:17:15.373Z,62.47
2018-05-02T00:19:43.572Z,62.88
2018-05-02T00:22:11.757Z,63.07
2018-05-02T00:24:39.936Z,63.13
2018-05-02T00:27:08.152Z,63.55
2018-05-02T00:29:36.306Z,63.75
2018-05-02T00:32:04.484Z,63.90
2018-05-02T00:34:32.649Z,64.10
2018-05-02T00:37:00.830Z,64.26
2018-05-02T00:39:28.978Z,64.47
2018-05-02T00:41:57.223Z,64.66
2018-05-02T00:44:25.387Z,64.62
2018-05-02T00:46:53.575Z,64.81
2018-05-02T00:49:21.725Z,65.03
2018-05-02T00:51:49.907Z,65.48
2018-05-02T00:54:18.079Z,66.08
2018-05-02T00:56:46.261Z,66.53
2018-05-02T00:59:14.705Z,66.45
2018-05-02T01:01:42.866Z,66.51
2018-05-02T01:04:11.018Z,66.21
2018-05-02T01:06:39.166Z,66.30
2018-05-02T01:09:07.579Z,66.53
2018-05-02T01:11:35.736Z,66.52
2018-05-02T01:14:03.879Z,66.51
2018-05-02T01:16:32.072Z,66.81
2018-05-02T01:19:00.244Z,66.55
2018-05-02T01:21:28.423Z,66.73
2018-05-02T01:23:56.631Z,66.78
2018-05-02T01:26:25.141Z,66.89
2018-05-02T01:28:53.311Z,67.22
2018-05-02T01:31:21.526Z,67.17
2018-05-02T01:33:49.693Z,67.55
2018-05-02T01:36:17.879Z,67.54
2018-05-02T01:38:46.034Z,67.43
2018-05-02T01:41:14.198Z,67.99
2018-05-02T01:43:42.372Z,68.10
2018-05-02T01:46:10.554Z,68.39
2018-05-02T01:48:38.778Z,68.28
2018-05-02T01:51:06.951Z,68.66
2018-05-02T01:53:35.128Z,68.68
2018-05-02T01:56:03.350Z,68.86
2018-05-02T01:58:31.524Z,68.89
2018-05-02T02:00:59.692Z,68.42
2018-05-02T02:03:27.887Z,68.45
2018-05-02T02:05:56.060Z,68.38
2018-05-02T02:08:24.221Z,68.72
2018-05-02T02:10:52.439Z,68.81
2018-05-02T02:13:20.620Z,68.52
2018-05-02T02:15:48.786Z,68.67
2018-05-02T02:18:16.942Z,68.79
2018-05-02T02:20:45.122Z,68.88
2018-05-02T02:23:13.285Z,68.92
2018-05-02T02:25:41.614Z,68.88
2018-05-02T02:28:09.796Z,68.67
2018-05-02T02:30:37.978Z,69.14
2018-05-02T02:33:06.116Z,69.01
2018-05-02T02:35:34.302Z,69.03
2018-05-02T02:38:02.489Z,69.22
2018-05-02T02:40:30.975Z,69.59
2018-05-02T02:42:59.168Z,69.33
2018-05-02T02:45:27.338Z,69.35
2018-05-02T02:47:55.522Z,69.60
2018-05-02T02:50:23.680Z,69.89
2018-05-02T02:52:51.873Z,70.14
2018-05-02T02:55:20.086Z,71.18
2018-05-02T02:57:48.298Z,71.35
2018-05-02T03:00:16.452Z,70.88
2018-05-02T03:02:44.641Z,70.58
2018-05-02T03:05:12.854Z,69.62
2018-05-02T03:07:41.007Z,69.70
2018-05-02T03:10:09.192Z,70.97
2018-05-02T03:12:37.340Z,71.46
2018-05-02T03:15:05.542Z,71.55
2018-05-02T03:17:33.743Z,71.58
2018-05-02T03:20:01.937Z,71.87
2018-05-02T03:22:30.128Z,71.88
2018-05-02T03:24:58.320Z,72.16
2018-05-02T03:27:26.508Z,72.14
2018-05-02T03:29:54.665Z,72.09
2018-05-02T03:32:22.864Z,71.99
2018-05-02T03:34:51.009Z,72.17
2018-05-02T03:37:19.275Z,72.40
2018-05-02T03:39:47.447Z,72.46
2018-05-02T03:42:15.648Z,72.47
2018-05-02T03:44:43.810Z,72.05
2018-05-02T03:47:11.978Z,72.12
2018-05-02T03:49:40.126Z,72.33
2018-05-02T03:52:08.285Z,72.42
2018-05-02T03:54:36.494Z,72.62
2018-05-02T03:57:04.647Z,72.21
2018-05-02T04:00:10.268Z,72.31
2018-05-02T04:03:38.306Z,72.02
2018-05-02T04:06:44.825Z,72.27
2018-05-02T04:09:13.045Z,72.15
2018-05-02T04:11:41.221Z,72.19
2018-05-02T04:14:09.383Z,71.91
2018-05-02T04:16:37.561Z,72.04
2018-05-02T04:19:05.874Z,72.24
2018-05-02T04:21:34.028Z,72.40
2018-05-02T04:24:02.187Z,72.51
2018-05-02T04:26:30.379Z,72.53
2018-05-02T04:28:58.553Z,72.31
2018-05-02T04:31:26.757Z,72.35
2018-05-02T04:33:54.916Z,72.46
2018-05-02T04:36:23.089Z,72.29
2018-05-02T04:38:51.230Z,72.15
2018-05-02T04:41:19.401Z,72.01
2018-05-02T04:43:47.574Z,71.84
2018-05-02T04:46:15.750Z,71.99
2018-05-02T04:48:43.902Z,71.97
2018-05-02T04:51:12.196Z,71.82
2018-05-02T04:53:40.574Z,71.79
2018-05-02T04:56:08.779Z,71.65
2018-05-02T04:58:36.918Z,71.66
2018-05-02T05:01:05.077Z,71.54
2018-05-02T05:03:33.487Z,71.49
2018-05-02T05:06:01.696Z,71.64
2018-05-02T05:08:29.907Z,71.32
2018-05-02T05:10:58.096Z,71.37
2018-05-02T05:13:26.246Z,71.31
2018-05-02T05:15:54.405Z,71.29
2018-05-02T05:18:22.597Z,71.13
2018-05-02T05:20:50.767Z,71.04
2018-05-02T05:23:18.948Z,70.99
2018-05-02T05:25:47.360Z,70.84
2018-05-02T05:28:15.591Z,70.57
2018-05-02T05:30:43.706Z,70.49
2018-05-02T05:33:11.886Z,70.12
2018-05-02T05:35:40.058Z,70.26
2018-05-02T05:38:08.311Z,70.33
2018-05-02T05:40:36.480Z,70.22
2018-05-02T05:43:04.667Z,69.82
2018-05-02T05:45:32.843Z,69.60
2018-05-02T05:48:01.029Z,69.82
2018-05-02T05:50:29.183Z,69.37
2018-05-02T05:52:57.344Z,69.26
2018-05-02T05:55:25.522Z,69.09
2018-05-02T05:57:53.683Z,69.22
2018-05-02T06:00:21.866Z,68.88
2018-05-02T06:02:50.323Z,67.98
2018-05-02T06:05:18.487Z,66.91
2018-05-02T06:07:46.679Z,65.42
2018-05-02T06:10:14.837Z,64.25
2018-05-02T06:12:43.185Z,64.66
2018-05-02T06:15:11.316Z,63.99
2018-05-02T06:17:39.480Z,64.48
2018-05-02T06:20:07.652Z,64.04
2018-05-02T06:22:35.822Z,63.50
2018-05-02T06:25:04.076Z,63.68
2018-05-02T06:27:32.229Z,59.65
2018-05-02T06:30:00.416Z,58.32
2018-05-02T06:32:28.591Z,57.65
2018-05-02T06:34:56.775Z,58.03
2018-05-02T06:37:24.969Z,57.33
2018-05-02T06:39:53.164Z,56.37
2018-05-02T06:42:21.338Z,54.69
2018-05-02T06:44:49.528Z,51.17
2018-05-02T06:47:17.688Z,44.09
2018-05-02T06:49:45.894Z,40.42
2018-05-02T06:52:14.040Z,36.62
2018-05-02T06:54:42.293Z,35.11
2018-05-02T06:57:10.369Z,32.61
2018-05-02T06:59:38.609Z,30.22
2018-05-02T07:02:06.860Z,28.96
2018-05-02T07:04:34.956Z,28.02
2018-05-02T07:07:03.363Z,27.68
2018-05-02T07:09:31.473Z,25.63
2018-05-02T07:12:00.702Z,24.81
2018-05-02T07:14:29.235Z,24.26
2018-05-02T07:16:57.966Z,23.28
2018-05-02T07:19:26.949Z,22.49
2018-05-02T07:21:55.367Z,21.86
2018-05-02T07:24:24.407Z,20.76
2018-05-02T07:26:54.598Z,21.65
2018-05-02T07:29:23.498Z,22.04
2018-05-02T07:31:51.724Z,21.57
2018-05-02T07:34:19.937Z,21.72
2018-05-02T07:36:48.123Z,21.18
2018-05-02T07:39:16.427Z,20.78
2018-05-02T07:41:44.730Z,21.61
2018-05-02T07:44:12.971Z,20.44
2018-05-02T07:46:41.373Z,20.50
2018-05-02T07:49:09.724Z,20.29
2018-05-02T07:51:37.956Z,20.05
2018-05-02T07:54:06.144Z,20.81
2018-05-02T07:56:34.914Z,20.05
2018-05-02T07:59:03.135Z,20.10
2018-05-02T08:01:31.425Z,20.94
2018-05-02T08:04:00.047Z,19.96
2018-05-02T08:06:28.270Z,19.00
2018-05-02T08:08:56.472Z,18.97
2018-05-02T08:11:24.655Z,19.18
2018-05-02T08:13:53.598Z,18.99
2018-05-02T08:16:21.846Z,21.06
2018-05-02T08:18:49.985Z,20.98
2018-05-02T08:21:18.162Z,21.57
2018-05-02T08:23:49.077Z,20.64
2018-05-02T08:26:17.228Z,20.86
2018-05-02T08:28:45.411Z,18.60
2018-05-02T08:31:14.160Z,19.59
2018-05-02T08:33:42.370Z,18.81
2018-05-02T08:36:10.579Z,21.55
2018-05-02T08:38:38.864Z,19.82
2018-05-02T08:41:07.058Z,19.20
2018-05-02T08:43:35.254Z,18.27
2018-05-02T08:46:03.418Z,18.98
2018-05-02T08:48:31.620Z,21.80
2018-05-02T08:50:59.780Z,19.51
2018-05-02T08:53:28.031Z,20.34
2018-05-02T08:55:56.334Z,20.39
2018-05-02T08:58:24.564Z,18.95
2018-05-02T09:00:52.786Z,19.78
2018-05-02T09:03:20.943Z,20.37
2018-05-02T09:05:49.094Z,18.82
2018-05-02T09:08:17.273Z,18.75
2018-05-02T09:10:45.444Z,17.06
2018-05-02T09:13:13.806Z,18.68
2018-05-02T09:15:42.012Z,16.87
2018-05-02T09:18:10.192Z,17.65
2018-05-02T09:20:38.377Z,18.31
2018-05-02T09:23:06.554Z,21.05
2018-05-02T09:25:35.073Z,23.18
2018-05-02T09:28:09.664Z,22.41
2018-05-02T09:30:38.349Z,25.61
2018-05-02T09:33:06.509Z,25.90
2018-05-02T09:35:34.698Z,27.14
2018-05-02T09:38:02.901Z,27.30
2018-05-02T09:40:31.041Z,27.41
2018-05-02T09:43:00.485Z,28.81
2018-05-02T09:45:30.484Z,27.78
2018-05-02T09:47:58.591Z,26.74
2018-05-02T09:50:26.854Z,25.80
2018-05-02T09:52:54.999Z,22.08
2018-05-02T09:55:23.158Z,22.86
2018-05-02T09:57:51.676Z,23.12
2018-05-02T10:00:20.294Z,23.42
2018-05-02T10:02:48.530Z,23.86
2018-05-02T10:05:16.701Z,27.35
2018-05-02T10:07:44.879Z,27.74
2018-05-02T10:10:13.048Z,28.35
2018-05-02T10:12:41.236Z,29.44
2018-05-02T10:15:09.426Z,29.22
2018-05-02T10:17:37.707Z,27.59
2018-05-02T10:20:06.288Z,25.84
2018-05-02T10:22:34.549Z,24.23
2018-05-02T10:25:02.719Z,24.98
2018-05-02T10:27:30.925Z,26.52
2018-05-02T10:29:59.077Z,26.79
2018-05-02T10:32:27.327Z,24.60
2018-05-02T10:34:55.585Z,23.18
2018-05-02T10:37:23.907Z,22.52
2018-05-02T10:39:52.186Z,23.14
2018-05-02T10:42:20.352Z,23.71
2018-05-02T10:44:48.527Z,24.22
2018-05-02T10:47:16.741Z,23.61
2018-05-02T10:49:44.902Z,23.84
2018-05-02T10:52:13.091Z,23.35
2018-05-02T10:54:42.867Z,20.47
2018-05-02T10:57:11.063Z,20.29
2018-05-02T10:59:39.260Z,18.56
2018-05-02T11:02:07.628Z,19.24
2018-05-02T11:04:35.803Z,21.41
2018-05-02T11:07:04.097Z,20.68
2018-05-02T11:09:32.264Z,19.28
2018-05-02T11:12:00.467Z,19.81
2018-05-02T11:14:28.675Z,21.07
2018-05-02T11:16:56.849Z,19.70
2018-05-02T11:19:25.436Z,21.28
2018-05-02T11:21:53.679Z,21.69
2018-05-02T11:24:21.761Z,21.81
2018-05-02T11:26:49.950Z,23.55
2018-05-02T11:29:18.150Z,23.65
2018-05-02T11:31:46.335Z,23.58
2018-05-02T11:34:14.504Z,22.23
2018-05-02T11:36:42.694Z,23.80
2018-05-02T11:39:10.866Z,23.26
2018-05-02T11:41:39.030Z,21.99
2018-05-02T11:44:07.189Z,22.78
2018-05-02T11:46:35.350Z,25.20
2018-05-02T11:49:03.537Z,27.03
2018-05-02T11:51:31.729Z,26.80
2018-05-02T11:53:59.894Z,26.68
2018-05-02T11:56:28.179Z,27.58
2018-05-02T11:58:56.430Z,26.47
2018-05-02T12:01:24.809Z,26.69
2018-05-02T12:03:53.324Z,28.10
2018-05-02T12:06:21.555Z,26.23
2018-05-02T12:08:49.791Z,28.16
2018-05-02T12:11:18.018Z,27.56
2018-05-02T12:13:46.455Z,28.45
2018-05-02T12:16:14.585Z,28.01
2018-05-02T12:18:42.753Z,26.42
2018-05-02T12:21:10.922Z,26.85
2018-05-02T12:23:39.095Z,27.71
2018-05-02T12:26:07.281Z,27.31
2018-05-02T12:28:35.463Z,28.79
2018-05-02T12:31:03.617Z,28.09
2018-05-02T12:33:31.819Z,27.34
2018-05-02T12:35:59.959Z,27.83
2018-05-02T12:38:28.489Z,28.75
2018-05-02T12:40:56.761Z,26.89
2018-05-02T12:43:24.925Z,28.11
2018-05-02T12:45:53.208Z,28.50
2018-05-02T12:48:21.433Z,27.68
2018-05-02T12:50:49.654Z,28.04
2018-05-02T12:53:17.893Z,28.64
2018-05-02T12:55:46.921Z,26.92
2018-05-02T12:58:15.300Z,27.48
2018-05-02T13:00:43.581Z,28.28
2018-05-02T13:03:11.989Z,28.39
2018-05-02T13:05:40.171Z,27.46
2018-05-02T13:08:08.443Z,27.58
2018-05-02T13:10:36.619Z,27.18
2018-05-02T13:13:04.790Z,28.17
2018-05-02T13:15:32.985Z,28.37
2018-05-02T13:18:01.144Z,29.16
2018-05-02T13:20:29.316Z,28.54
2018-05-02T13:22:57.465Z,28.64
2018-05-02T13:25:25.657Z,28.62
2018-05-02T13:27:53.850Z,29.51
2018-05-02T13:30:22.037Z,28.32
2018-05-02T13:32:50.181Z,28.45
2018-05-02T13:35:18.362Z,27.50
2018-05-02T13:37:46.543Z,28.45
2018-05-02T13:40:14.710Z,28.00
2018-05-02T13:42:42.870Z,28.62
2018-05-02T13:45:11.145Z,30.00
2018-05-02T13:47:39.320Z,27.70
2018-05-02T13:50:07.509Z,28.49
2018-05-02T13:52:35.653Z,28.83
2018-05-02T13:55:03.831Z,29.11
2018-05-02T13:57:32.004Z,28.76
2018-05-02T14:00:00.272Z,29.01
2018-05-02T14:02:28.465Z,28.22
2018-05-02T14:04:56.719Z,28.97
2018-05-02T14:07:24.880Z,28.45
2018-05-02T14:09:53.030Z,28.04
2018-05-02T14:12:21.420Z,29.05
2018-05-02T14:14:49.671Z,27.86
2018-05-02T14:17:17.873Z,27.71
2018-05-02T14:19:46.333Z,29.02
2018-05-02T14:22:14.491Z,29.61
2018-05-02T14:24:42.997Z,29.10
2018-05-02T14:27:13.122Z,29.86
2018-05-02T14:29:41.328Z,29.38
2018-05-02T14:32:09.580Z,29.85
2018-05-02T14:34:37.856Z,30.51
2018-05-02T14:37:05.998Z,28.80
2018-05-02T14:39:34.243Z,30.15
2018-05-02T14:42:02.492Z,28.99
2018-05-02T14:44:30.694Z,28.90
2018-05-02T14:46:58.871Z,28.54
2018-05-02T14:49:27.052Z,27.91
2018-05-02T14:51:55.220Z,30.14
2018-05-02T14:54:23.365Z,29.68
2018-05-02T14:56:51.553Z,29.72
2018-05-02T14:59:20.528Z,28.50
2018-05-02T15:01:48.720Z,28.81
2018-05-02T15:04:16.917Z,28.71
2018-05-02T15:06:45.074Z,28.34
2018-05-02T15:09:13.260Z,28.88
2018-05-02T15:11:41.435Z,27.86
2018-05-02T15:14:09.620Z,28.13
2018-05-02T15:16:37.782Z,27.54
2018-05-02T15:19:06.029Z,27.13
2018-05-02T15:21:34.200Z,28.66
2018-05-02T15:24:02.410Z,28.60
2018-05-02T15:26:30.574Z,28.98
2018-05-02T15:28:58.748Z,28.79
2018-05-02T15:31:26.905Z,28.71
2018-05-02T15:33:55.068Z,30.11
2018-05-02T15:36:23.233Z,28.13
2018-05-02T15:38:51.407Z,29.13
2018-05-02T15:41:19.571Z,27.73
2018-05-02T15:43:47.766Z,28.00
2018-05-02T15:46:15.907Z,27.64
2018-05-02T15:48:44.061Z,27.06
2018-05-02T15:51:12.236Z,28.47
2018-05-02T15:53:40.399Z,27.72
2018-05-02T15:56:09.264Z,28.59
2018-05-02T15:58:37.391Z,27.60
2018-05-02T16:01:05.587Z,27.81
2018-05-02T16:03:33.744Z,27.78
2018-05-02T16:06:01.914Z,28.40
2018-05-02T16:08:30.109Z,28.60
2018-05-02T16:10:58.314Z,27.98
2018-05-02T16:13:26.474Z,27.53
2018-05-02T16:15:54.634Z,27.87
2018-05-02T16:18:22.832Z,28.57
2018-05-02T16:20:51.045Z,28.55
2018-05-02T16:23:19.154Z,28.83
2018-05-02T16:25:47.317Z,29.06
2018-05-02T16:28:15.521Z,28.84
2018-05-02T16:30:43.705Z,28.48
2018-05-02T16:33:11.997Z,29.07
2018-05-02T16:35:40.436Z,27.86
2018-05-02T16:38:08.610Z,26.91
2018-05-02T16:40:36.776Z,27.33
2018-05-02T16:43:04.968Z,27.70
2018-05-02T16:45:33.158Z,28.70
2018-05-02T16:48:01.317Z,28.41
2018-05-02T16:50:29.562Z,28.48
2018-05-02T16:52:57.741Z,27.81
2018-05-02T16:55:25.942Z,28.19
2018-05-02T16:57:54.266Z,29.56
2018-05-02T17:00:22.437Z,28.67
2018-05-02T17:02:50.579Z,29.31
2018-05-02T17:05:18.767Z,28.94
2018-05-02T17:07:46.944Z,28.92
2018-05-02T17:10:15.103Z,29.36
2018-05-02T17:12:43.252Z,29.16
2018-05-02T17:15:11.402Z,29.33
2018-05-02T17:17:39.577Z,30.28
2018-05-02T17:20:07.751Z,30.92
2018-05-02T17:22:35.943Z,31.14
2018-05-02T17:25:04.124Z,30.88
2018-05-02T17:27:32.313Z,30.80
2018-05-02T17:30:00.581Z,31.13
2018-05-02T17:32:28.637Z,31.09
2018-05-02T17:34:56.790Z,31.76
2018-05-02T17:37:24.992Z,31.95
2018-05-02T17:39:53.124Z,32.21
2018-05-02T17:42:21.268Z,33.07
2018-05-02T17:44:49.468Z,33.07
2018-05-02T17:47:17.654Z,33.50
2018-05-02T17:49:46.127Z,33.93
2018-05-02T17:52:14.328Z,34.11
2018-05-02T17:54:42.486Z,34.13
2018-05-02T17:57:10.692Z,34.49
2018-05-02T17:59:38.870Z,34.33
2018-05-02T18:02:07.020Z,35.14
2018-05-02T18:04:35.201Z,34.88
2018-05-02T18:07:03.358Z,35.13
2018-05-02T18:09:31.539Z,34.71
2018-05-02T18:11:59.730Z,35.02
2018-05-02T18:14:27.919Z,34.73
2018-05-02T18:16:56.146Z,34.74
2018-05-02T18:19:24.309Z,34.82
2018-05-02T18:21:52.498Z,35.07
2018-05-02T18:24:20.685Z,34.85
2018-05-02T18:26:48.886Z,35.01
2018-05-02T18:29:17.073Z,34.48
2018-05-02T18:31:45.368Z,34.88
2018-05-02T18:34:13.518Z,35.11
2018-05-02T18:36:41.685Z,34.98
2018-05-02T18:39:09.853Z,35.40
2018-05-02T18:41:38.007Z,35.50
2018-05-02T18:44:06.209Z,35.83
2018-05-02T18:46:34.392Z,36.21
2018-05-02T18:49:02.539Z,35.44
2018-05-02T18:51:30.700Z,35.63
2018-05-02T18:53:58.856Z,36.13
2018-05-02T18:56:27.029Z,36.73
2018-05-02T18:58:55.201Z,36.39
2018-05-02T19:01:23.372Z,36.47
2018-05-02T19:03:51.618Z,36.23
2018-05-02T19:06:19.707Z,36.30
2018-05-02T19:08:47.873Z,35.87
2018-05-02T19:11:16.048Z,36.57
2018-05-02T19:14:01.322Z,36.29
2018-05-02T19:16:29.506Z,37.10
2018-05-02T19:19:15.626Z,36.45
2018-05-02T19:21:43.825Z,36.56
2018-05-02T19:24:11.979Z,37.14
2018-05-02T19:26:40.318Z,36.86
2018-05-02T19:29:08.533Z,38.23
2018-05-02T19:31:55.826Z,37.26
2018-05-02T19:34:24.009Z,36.90
2018-05-02T19:36:52.200Z,37.12
2018-05-02T19:39:20.366Z,37.43
2018-05-02T19:42:06.040Z,38.24
2018-05-02T19:44:34.226Z,37.74
2018-05-02T19:47:02.403Z,39.19
2018-05-02T19:49:30.587Z,40.17
2018-05-02T19:52:23.709Z,39.68
2018-05-02T19:54:52.173Z,41.64
2018-05-02T19:57:20.341Z,42.33
2018-05-02T19:59:48.479Z,41.84
2018-05-02T20:02:35.779Z,42.09
2018-05-02T20:05:03.955Z,42.25
2018-05-02T20:07:41.617Z,43.72
2018-05-02T20:10:34.767Z,42.59
2018-05-02T20:13:30.983Z,42.01
2018-05-02T20:15:59.132Z,42.17
2018-05-02T20:18:27.326Z,43.22
2018-05-02T20:20:55.476Z,42.15
2018-05-02T20:23:23.657Z,41.72
2018-05-02T20:25:51.817Z,41.15
2018-05-02T20:28:19.980Z,41.95
2018-05-02T20:30:49.572Z,41.85
2018-05-02T20:33:17.661Z,42.58
2018-05-02T20:35:45.857Z,42.32
2018-05-02T20:38:14.042Z,42.37
2018-05-02T20:40:42.187Z,42.19
2018-05-02T20:43:10.354Z,42.43
2018-05-02T20:45:38.528Z,42.45
2018-05-02T20:48:06.719Z,42.75
2018-05-02T20:50:34.891Z,43.37
2018-05-02T20:53:03.052Z,42.80
2018-05-02T20:55:31.245Z,43.33
2018-05-02T20:57:59.394Z,43.25
2018-05-02T21:00:27.550Z,43.95
2018-05-02T21:02:55.717Z,44.21
2018-05-02T21:05:24.304Z,44.43
2018-05-02T21:07:52.460Z,44.63
2018-05-02T21:10:20.633Z,44.62
2018-05-02T21:12:48.862Z,44.57
2018-05-02T21:15:17.003Z,45.18
2018-05-02T21:17:45.168Z,45.56
2018-05-02T21:20:13.327Z,45.59
2018-05-02T21:22:41.496Z,46.86
2018-05-02T21:25:10.035Z,47.54
2018-05-02T21:27:38.094Z,47.74
2018-05-02T21:30:06.267Z,47.80
2018-05-02T21:32:35.368Z,48.44
2018-05-02T21:35:03.548Z,49.00
2018-05-02T21:37:31.662Z,49.65
2018-05-02T21:39:59.845Z,51.50
2018-05-02T21:42:28.010Z,53.75
2018-05-02T21:44:56.184Z,54.01
2018-05-02T21:47:24.324Z,55.74
2018-05-02T21:49:52.495Z,56.24
2018-05-02T21:52:20.668Z,56.81
2018-05-02T21:54:48.934Z,57.39
2018-05-02T21:57:17.152Z,58.62
2018-05-02T21:59:45.382Z,58.56
2018-05-02T22:02:13.478Z,59.20
2018-05-02T22:04:41.673Z,59.15
2018-05-02T22:07:09.841Z,59.38
2018-05-02T22:09:38.033Z,59.28
2018-05-02T22:12:06.215Z,59.32
2018-05-02T22:14:34.415Z,59.26
2018-05-02T22:17:02.596Z,59.20
2018-05-02T22:19:30.775Z,59.39
2018-05-02T22:21:58.927Z,59.68
2018-05-02T22:24:27.110Z,59.73
2018-05-02T22:26:55.301Z,59.77
2018-05-02T22:29:23.457Z,60.02
2018-05-02T22:31:51.643Z,60.07
2018-05-02T22:34:19.789Z,60.06
2018-05-02T22:36:47.967Z,60.22
2018-05-02T22:39:16.156Z,60.68
2018-05-02T22:41:44.342Z,60.76
2018-05-02T22:44:12.520Z,61.04
2018-05-02T22:46:40.703Z,61.12
2018-05-02T22:49:08.870Z,61.25
2018-05-02T22:51:37.068Z,61.27
2018-05-02T22:54:05.276Z,61.76
2018-05-02T22:56:33.492Z,61.62
2018-05-02T22:59:01.688Z,62.10
2018-05-02T23:01:29.861Z,61.84
2018-05-02T23:03:58.064Z,61.65
2018-05-02T23:06:26.258Z,62.28
2018-05-02T23:08:55.262Z,62.97
2018-05-02T23:11:23.447Z,63.24
2018-05-02T23:13:51.876Z,62.78
2018-05-02T23:16:20.031Z,62.97
2018-05-02T23:18:48.360Z,63.11
2018-05-02T23:21:16.534Z,62.79
2018-05-02T23:23:45.114Z,63.17
2018-05-02T23:26:13.263Z,63.02
2018-05-02T23:28:41.463Z,62.83
2018-05-02T23:31:09.629Z,63.10
2018-05-02T23:33:37.869Z,63.45
2018-05-02T23:36:05.994Z,63.40
2018-05-02T23:38:34.206Z,63.55
2018-05-02T23:41:02.416Z,63.58
2018-05-02T23:43:30.614Z,63.98
2018-05-02T23:45:58.780Z,63.40
2018-05-02T23:48:26.952Z,63.60
2018-05-02T23:50:55.150Z,63.37
2018-05-02T23:53:23.300Z,63.73
2018-05-02T23:55:51.471Z,63.32
2018-05-02T23:58:19.624Z,63.41
